createdAt,value
2018-10-05T00:05:02.334Z,9.80
2018-10-05T00:10:05.614Z,9.70
2018-10-05T00:15:08.815Z,9.80
2018-10-05T00:20:12.006Z,10.00
2018-10-05T00:25:15.232Z,10.20
2018-10-05T00:30:18.434Z,10.10
2018-10-05T00:35:21.697Z,9.90
2018-10-05T00:40:24.971Z,9.90
2018-10-05T00:45:28.423Z,9.80
2018-10-05T00:50:31.597Z,9.80
2018-10-05T00:55:34.835Z,9.60
2018-10-05T01:00:38.095Z,9.60
2018-10-05T01:05:41.359Z,9.80
2018-10-05T01:10:44.610Z,10.00
2018-10-05T01:15:47.829Z,9.90
2018-10-05T01:20:51.094Z,9.70
2018-10-05T01:25:54.330Z,9.70
2018-10-05T01:30:57.605Z,9.80
2018-10-05T01:36:00.911Z,9.80
2018-10-05T01:41:04.138Z,9.90
2018-10-05T01:46:07.354Z,9.80
2018-10-05T01:51:10.596Z,9.70
2018-10-05T01:56:14.888Z,9.70
2018-10-05T02:01:18.105Z,9.70
2018-10-05T02:06:21.401Z,9.70
2018-10-05T02:11:24.663Z,9.50
2018-10-05T02:16:27.890Z,9.50
2018-10-05T02:21:31.097Z,9.40
2018-10-05T02:26:34.294Z,9.20
2018-10-05T02:31:37.489Z,9.30
2018-10-05T02:36:40.749Z,9.20
2018-10-05T02:41:43.974Z,9.10
2018-10-05T02:46:47.143Z,9.10
2018-10-05T02:51:50.354Z,9.20
2018-10-05T02:56:53.682Z,9.20
2018-10-05T03:02:08.476Z,9.20
2018-10-05T03:07:11.699Z,9.10
2018-10-05T03:12:14.994Z,9.10
2018-10-05T03:17:18.228Z,9.00
2018-10-05T03:22:21.444Z,9.00
2018-10-05T03:27:24.626Z,8.90
2018-10-05T03:32:27.877Z,8.90
2018-10-05T03:37:31.202Z,8.70
2018-10-05T03:42:34.568Z,8.70
2018-10-05T03:47:37.799Z,8.70
2018-10-05T03:52:41.081Z,8.80
2018-10-05T03:57:44.299Z,8.80
2018-10-05T04:02:47.527Z,8.70
2018-10-05T04:07:50.849Z,8.60
2018-10-05T04:12:54.066Z,8.60
2018-10-05T04:17:57.277Z,8.60
2018-10-05T04:23:00.533Z,8.50
2018-10-05T04:28:03.735Z,8.50
2018-10-05T04:33:06.955Z,8.50
2018-10-05T04:38:10.184Z,8.50
2018-10-05T04:43:13.398Z,8.50
2018-10-05T04:48:16.610Z,8.50
2018-10-05T04:53:19.865Z,8.50
2018-10-05T04:58:31.352Z,8.40
2018-10-05T05:03:34.714Z,8.30
2018-10-05T05:08:37.893Z,8.20
2018-10-05T05:13:41.086Z,8.30
2018-10-05T05:18:44.315Z,8.30
2018-10-05T05:23:47.570Z,8.20
2018-10-05T05:28:50.877Z,8.20
2018-10-05T05:33:54.127Z,8.20
2018-10-05T05:38:57.354Z,8.20
2018-10-05T05:44:00.622Z,8.10
2018-10-05T05:49:03.933Z,8.10
2018-10-05T05:54:12.861Z,8.10
2018-10-05T05:59:16.070Z,8.10
2018-10-05T06:04:19.252Z,8.10
2018-10-05T06:09:22.497Z,8.10
2018-10-05T06:14:25.737Z,8.10
2018-10-05T06:19:28.964Z,8.20
2018-10-05T06:24:32.229Z,8.20
2018-10-05T06:29:35.438Z,8.30
2018-10-05T06:34:38.662Z,8.40
2018-10-05T06:39:41.868Z,8.40
2018-10-05T06:44:45.069Z,8.50
2018-10-05T06:49:48.579Z,8.60
2018-10-05T06:54:51.778Z,8.70
2018-10-05T06:59:55.020Z,8.80
2018-10-05T07:05:00.262Z,8.90
2018-10-05T07:10:03.482Z,9.00
2018-10-05T07:15:07.734Z,9.10
2018-10-05T07:20:11.101Z,9.20
2018-10-05T07:25:14.418Z,9.40
2018-10-05T07:30:17.604Z,9.50
2018-10-05T07:35:20.826Z,9.70
2018-10-05T07:40:24.087Z,10.10
2018-10-05T07:45:27.322Z,10.30
2018-10-05T07:50:30.542Z,10.50
2018-10-05T07:55:33.842Z,10.60
2018-10-05T08:00:37.206Z,11.00
2018-10-05T08:05:40.436Z,11.20
2018-10-05T08:10:43.715Z,11.60
2018-10-05T08:15:46.982Z,12.00
2018-10-05T08:20:50.204Z,12.30
2018-10-05T08:25:54.502Z,12.60
2018-10-05T08:30:57.717Z,12.80
2018-10-05T08:36:00.933Z,13.10
2018-10-05T08:41:05.146Z,13.40
2018-10-05T08:46:08.346Z,13.50
2018-10-05T08:51:11.562Z,13.80
2018-10-05T08:56:14.774Z,14.00
2018-10-05T09:01:18.070Z,14.20
2018-10-05T09:06:21.306Z,14.50
2018-10-05T09:11:24.589Z,15.00
2018-10-05T09:16:27.843Z,15.60
2018-10-05T09:21:31.121Z,15.80
2018-10-05T09:26:34.439Z,16.00
2018-10-05T09:31:37.658Z,16.30
2018-10-05T09:36:40.882Z,16.70
2018-10-05T09:41:44.121Z,17.00
2018-10-05T09:46:47.521Z,17.10
2018-10-05T09:51:50.720Z,17.20
2018-10-05T09:56:54.052Z,17.70
2018-10-05T10:02:02.750Z,17.90
2018-10-05T10:07:05.982Z,18.00
2018-10-05T10:12:10.190Z,18.20
2018-10-05T10:17:13.534Z,18.20
2018-10-05T10:22:16.813Z,18.30
2018-10-05T10:27:20.835Z,18.40
2018-10-05T10:32:24.071Z,18.50
2018-10-05T10:37:27.294Z,18.60
2018-10-05T10:42:30.512Z,18.70
2018-10-05T10:47:33.727Z,18.70
2018-10-05T10:52:37.057Z,18.70
2018-10-05T10:57:40.294Z,19.00
2018-10-05T11:02:43.497Z,19.10
2018-10-05T11:07:46.745Z,19.20
2018-10-05T11:12:49.985Z,19.20
2018-10-05T11:17:53.185Z,19.40
2018-10-05T11:22:56.398Z,19.40
2018-10-05T11:27:59.618Z,19.60
2018-10-05T11:33:02.931Z,19.50
2018-10-05T11:38:06.261Z,19.60
2018-10-05T11:43:09.475Z,19.80
2018-10-05T11:48:12.699Z,19.80
2018-10-05T11:53:15.930Z,20.00
2018-10-05T11:58:19.190Z,20.10
2018-10-05T12:03:22.640Z,20.10
2018-10-05T12:08:26.407Z,20.20
2018-10-05T12:13:29.634Z,20.40
2018-10-05T12:18:33.581Z,20.60
2018-10-05T12:23:36.909Z,20.70
2018-10-05T12:28:40.250Z,20.70
2018-10-05T12:33:43.681Z,20.70
2018-10-05T12:38:47.066Z,20.80
2018-10-05T12:43:50.411Z,20.90
2018-10-05T12:48:53.722Z,20.90
2018-10-05T12:54:02.157Z,20.90
2018-10-05T12:59:05.449Z,21.00
2018-10-05T13:04:10.726Z,21.00
2018-10-05T13:09:14.057Z,21.10
2018-10-05T13:14:17.279Z,21.10
2018-10-05T13:19:20.537Z,21.30
2018-10-05T13:24:23.754Z,21.10
2018-10-05T13:29:26.962Z,21.00
2018-10-05T13:34:30.170Z,21.20
2018-10-05T13:39:33.488Z,21.30
2018-10-05T13:44:36.695Z,21.50
2018-10-05T13:49:40.016Z,21.40
2018-10-05T13:54:43.225Z,21.40
2018-10-05T13:59:47.565Z,21.30
2018-10-05T14:04:50.771Z,21.40
2018-10-05T14:09:57.730Z,21.50
2018-10-05T14:15:04.418Z,21.50
2018-10-05T14:20:07.663Z,21.50
2018-10-05T14:25:10.885Z,21.50
2018-10-05T14:30:16.093Z,21.40
2018-10-05T14:35:20.390Z,21.40
2018-10-05T14:40:26.733Z,21.60
2018-10-05T14:45:30.135Z,21.40
2018-10-05T14:50:36.140Z,21.40
2018-10-05T14:55:46.539Z,21.30
2018-10-05T15:00:59.588Z,21.10
2018-10-05T15:06:10.802Z,21.00
2018-10-05T15:11:20.044Z,21.00
2018-10-05T15:16:34.963Z,21.00
2018-10-05T15:21:38.334Z,20.80
2018-10-05T15:26:47.895Z,20.70
2018-10-05T15:31:51.234Z,20.50
2018-10-05T15:36:59.614Z,20.40
2018-10-05T15:42:04.077Z,20.40
2018-10-05T15:47:08.595Z,20.20
2018-10-05T15:52:13.902Z,20.10
2018-10-05T15:57:20.347Z,19.90
2018-10-05T16:02:23.586Z,19.80
2018-10-05T16:07:28.178Z,19.80
2018-10-05T16:12:31.484Z,19.70
2018-10-05T16:17:34.694Z,19.40
2018-10-05T16:22:37.982Z,19.10
2018-10-05T16:27:41.191Z,18.90
2018-10-05T16:32:44.518Z,18.90
2018-10-05T16:37:48.418Z,19.10
2018-10-05T16:42:52.005Z,19.10
2018-10-05T16:47:57.414Z,18.80
2018-10-05T16:53:01.262Z,18.70
2018-10-05T16:58:04.573Z,18.10
2018-10-05T17:03:07.815Z,17.90
2018-10-05T17:08:11.130Z,17.90
2018-10-05T17:13:14.362Z,17.90
2018-10-05T17:18:17.663Z,18.00
2018-10-05T17:23:20.934Z,18.20
2018-10-05T17:28:25.170Z,18.20
2018-10-05T17:33:28.394Z,18.10
2018-10-05T17:38:31.601Z,18.20
2018-10-05T17:43:34.810Z,18.10
2018-10-05T17:48:39.119Z,18.00
2018-10-05T17:53:42.514Z,17.90
2018-10-05T17:58:46.770Z,17.80
2018-10-05T18:03:50.016Z,17.60
2018-10-05T18:08:53.293Z,17.50
2018-10-05T18:13:56.601Z,17.30
2018-10-05T18:18:59.915Z,17.20
2018-10-05T18:24:03.154Z,17.00
2018-10-05T18:29:06.474Z,16.80
2018-10-05T18:34:09.867Z,16.60
2018-10-05T18:39:13.082Z,16.50
2018-10-05T18:44:16.477Z,16.40
2018-10-05T18:49:36.210Z,16.50
2018-10-05T18:54:44.257Z,16.30
2018-10-05T18:59:47.518Z,16.20
2018-10-05T19:04:50.893Z,16.10
2018-10-05T19:09:54.130Z,16.00
2018-10-05T19:14:57.338Z,15.90
2018-10-05T19:20:01.599Z,15.90
2018-10-05T19:25:04.886Z,15.90
2018-10-05T19:30:08.325Z,15.90
2018-10-05T19:35:11.573Z,16.00
2018-10-05T19:40:17.998Z,16.10
2018-10-05T19:45:21.242Z,16.30
2018-10-05T19:50:25.579Z,16.30
2018-10-05T19:55:28.794Z,16.40
2018-10-05T20:00:31.994Z,16.30
2018-10-05T20:05:35.198Z,16.40
2018-10-05T20:10:38.418Z,16.40
2018-10-05T20:15:41.619Z,16.50
2018-10-05T20:20:44.935Z,16.50
2018-10-05T20:25:48.208Z,16.40
2018-10-05T20:30:51.510Z,16.40
2018-10-05T20:35:54.891Z,16.30
2018-10-05T20:40:57.986Z,16.20
2018-10-05T20:46:01.270Z,16.10
2018-10-05T20:51:04.520Z,16.10
2018-10-05T20:56:07.796Z,16.10
2018-10-05T21:01:11.153Z,16.10
2018-10-05T21:06:15.473Z,16.20
2018-10-05T21:11:19.929Z,16.30
2018-10-05T21:16:23.246Z,16.30
2018-10-05T21:21:26.540Z,16.30
2018-10-05T21:26:31.765Z,16.10
2018-10-05T21:31:40.303Z,16.10
2018-10-05T21:36:43.534Z,16.00
2018-10-05T21:41:47.522Z,15.90
2018-10-05T21:46:51.804Z,15.80
2018-10-05T21:51:55.017Z,15.70
2018-10-05T21:56:58.281Z,15.70
2018-10-05T22:02:01.510Z,15.60
2018-10-05T22:07:05.938Z,15.50
2018-10-05T22:12:09.146Z,15.50
2018-10-05T22:17:12.530Z,15.50
2018-10-05T22:22:15.779Z,15.50
2018-10-05T22:27:19.005Z,15.50
2018-10-05T22:32:22.222Z,15.40
2018-10-05T22:37:25.467Z,15.50
2018-10-05T22:42:28.734Z,15.40
2018-10-05T22:47:31.945Z,15.40
2018-10-05T22:52:35.173Z,15.40
2018-10-05T22:57:38.414Z,15.50
2018-10-05T23:02:41.650Z,15.50
2018-10-05T23:07:44.874Z,15.50
2018-10-05T23:12:48.105Z,15.50
2018-10-05T23:17:51.325Z,15.50
2018-10-05T23:22:54.565Z,15.40
2018-10-05T23:27:57.806Z,15.40
2018-10-05T23:33:01.170Z,15.30
2018-10-05T23:38:04.414Z,15.30
2018-10-05T23:43:07.654Z,15.20
2018-10-05T23:48:10.932Z,15.10
2018-10-05T23:53:14.186Z,15.10
2018-10-05T23:58:17.436Z,15.00
